<?xml version="1.0" encoding="UTF-8" standalone="no" ?>
<gpx xmlns="http://www.topografix.com/GPX/1/1" xmlns:xsi="http://www.w3.org/2001/XMLSchema-instance" xsi:schemaLocation="http://www.topografix.com/GPX/1/1 http://www.topografix.com/GPX/1/1/gpx.xsd" version="1.1" creator="VisuGPX - https://www.visugpx.com">
  <metadata>
    <name>VacancesDricouZoe</name>
  </metadata>
  <trk>
    <name><![CDATA[Journal actif: 2021-07-05 13:26]]></name>
    <trkseg>
      <trkpt lat="43.38515" lon="-1.66315">
        <ele>-4.67</ele>
        <time>2021-07-05T15:26:45Z</time>
      </trkpt>
      <trkpt lat="43.38516" lon="-1.66317">
        <ele>-4.67</ele>
        <time>2021-07-05T15:27:17Z</time>
      </trkpt>
      <trkpt lat="43.38518" lon="-1.66316">
        <ele>-5.15</ele>
        <time>2021-07-05T15:27:32Z</time>
      </trkpt>
      <trkpt lat="43.3852" lon="-1.66313">
        <ele>-5.15</ele>
        <time>2021-07-05T15:27:40Z</time>
      </trkpt>
      <trkpt lat="43.38544" lon="-1.66289">
        <ele>-6.11</ele>
        <time>2021-07-05T15:27:57Z</time>
      </trkpt>
      <trkpt lat="43.38545" lon="-1.66287">
        <ele>-5.63</ele>
        <time>2021-07-05T15:27:58Z</time>
      </trkpt>
      <trkpt lat="43.38545" lon="-1.66287">
        <ele>-5.63</ele>
        <time>2021-07-05T15:27:59Z</time>
      </trkpt>
      <trkpt lat="43.38545" lon="-1.66286">
        <ele>-6.11</ele>
        <time>2021-07-05T15:28:13Z</time>
      </trkpt>
      <trkpt lat="43.38546" lon="-1.66285">
        <ele>-6.11</ele>
        <time>2021-07-05T15:28:14Z</time>
      </trkpt>
      <trkpt lat="43.38546" lon="-1.66283">
        <ele>-6.11</ele>
        <time>2021-07-05T15:28:15Z</time>
      </trkpt>
      <trkpt lat="43.38548" lon="-1.66279">
        <ele>-6.11</ele>
        <time>2021-07-05T15:28:16Z</time>
      </trkpt>
      <trkpt lat="43.38548" lon="-1.66279">
        <ele>-6.11</ele>
        <time>2021-07-05T15:28:17Z</time>
      </trkpt>
      <trkpt lat="43.3855" lon="-1.66275">
        <ele>-6.11</ele>
        <time>2021-07-05T15:28:18Z</time>
      </trkpt>
      <trkpt lat="43.38581" lon="-1.66208">
        <ele>-6.59</ele>
        <time>2021-07-05T15:28:29Z</time>
      </trkpt>
      <trkpt lat="43.38594" lon="-1.66181">
        <ele>-6.59</ele>
        <time>2021-07-05T15:28:34Z</time>
      </trkpt>
      <trkpt lat="43.38599" lon="-1.66175">
        <ele>-6.59</ele>
        <time>2021-07-05T15:28:35Z</time>
      </trkpt>
      <trkpt lat="43.38603" lon="-1.66172">
        <ele>-6.11</ele>
        <time>2021-07-05T15:28:36Z</time>
      </trkpt>
      <trkpt lat="43.38612" lon="-1.66172">
        <ele>-6.11</ele>
        <time>2021-07-05T15:28:37Z</time>
      </trkpt>
      <trkpt lat="43.38612" lon="-1.66172">
        <ele>-6.11</ele>
        <time>2021-07-05T15:28:38Z</time>
      </trkpt>
      <trkpt lat="43.38615" lon="-1.66173">
        <ele>-6.11</ele>
        <time>2021-07-05T15:28:39Z</time>
      </trkpt>
      <trkpt lat="43.38618" lon="-1.66177">
        <ele>-6.11</ele>
        <time>2021-07-05T15:28:40Z</time>
      </trkpt>
      <trkpt lat="43.38621" lon="-1.66182">
        <ele>-6.59</ele>
        <time>2021-07-05T15:28:41Z</time>
      </trkpt>
      <trkpt lat="43.38623" lon="-1.66187">
        <ele>-5.63</ele>
        <time>2021-07-05T15:28:42Z</time>
      </trkpt>
      <trkpt lat="43.38623" lon="-1.66193">
        <ele>-5.63</ele>
        <time>2021-07-05T15:28:43Z</time>
      </trkpt>
      <trkpt lat="43.38622" lon="-1.662">
        <ele>-5.15</ele>
        <time>2021-07-05T15:28:44Z</time>
      </trkpt>
      <trkpt lat="43.38621" lon="-1.66207">
        <ele>-5.15</ele>
        <time>2021-07-05T15:28:45Z</time>
      </trkpt>
      <trkpt lat="43.38618" lon="-1.6621">
        <ele>-5.15</ele>
        <time>2021-07-05T15:28:46Z</time>
      </trkpt>
      <trkpt lat="43.38612" lon="-1.66212">
        <ele>-5.15</ele>
        <time>2021-07-05T15:28:47Z</time>
      </trkpt>
      <trkpt lat="43.38606" lon="-1.66215">
        <ele>-5.15</ele>
        <time>2021-07-05T15:28:48Z</time>
      </trkpt>
      <trkpt lat="43.38593" lon="-1.6622">
        <ele>-4.67</ele>
        <time>2021-07-05T15:28:50Z</time>
      </trkpt>
      <trkpt lat="43.38586" lon="-1.66223">
        <ele>-4.67</ele>
        <time>2021-07-05T15:28:51Z</time>
      </trkpt>
      <trkpt lat="43.38579" lon="-1.66226">
        <ele>-4.67</ele>
        <time>2021-07-05T15:28:52Z</time>
      </trkpt>
      <trkpt lat="43.3857" lon="-1.66231">
        <ele>-4.67</ele>
        <time>2021-07-05T15:28:53Z</time>
      </trkpt>
      <trkpt lat="43.38565" lon="-1.66239">
        <ele>-4.67</ele>
        <time>2021-07-05T15:28:54Z</time>
      </trkpt>
      <trkpt lat="43.3856" lon="-1.66248">
        <ele>-4.67</ele>
        <time>2021-07-05T15:28:55Z</time>
      </trkpt>
      <trkpt lat="43.38555" lon="-1.66259">
        <ele>-4.67</ele>
        <time>2021-07-05T15:28:56Z</time>
      </trkpt>
      <trkpt lat="43.38468" lon="-1.66461">
        <ele>-3.23</ele>
        <time>2021-07-05T15:29:12Z</time>
      </trkpt>
      <trkpt lat="43.38399" lon="-1.66594">
        <ele>-1.79</ele>
        <time>2021-07-05T15:29:23Z</time>
      </trkpt>
      <trkpt lat="43.38329" lon="-1.66662">
        <ele>-2.75</ele>
        <time>2021-07-05T15:29:32Z</time>
      </trkpt>
      <trkpt lat="43.38209" lon="-1.66745">
        <ele>-4.19</ele>
        <time>2021-07-05T15:29:44Z</time>
      </trkpt>
      <trkpt lat="43.38153" lon="-1.66778">
        <ele>-4.19</ele>
        <time>2021-07-05T15:29:53Z</time>
      </trkpt>
      <trkpt lat="43.38062" lon="-1.66851">
        <ele>-3.23</ele>
        <time>2021-07-05T15:30:03Z</time>
      </trkpt>
      <trkpt lat="43.38008" lon="-1.66896">
        <ele>-2.27</ele>
        <time>2021-07-05T15:30:11Z</time>
      </trkpt>
      <trkpt lat="43.37915" lon="-1.66994">
        <ele>-1.3</ele>
        <time>2021-07-05T15:30:22Z</time>
      </trkpt>
      <trkpt lat="43.37832" lon="-1.67111">
        <ele>0.62</ele>
        <time>2021-07-05T15:30:34Z</time>
      </trkpt>
      <trkpt lat="43.37827" lon="-1.67124">
        <ele>1.58</ele>
        <time>2021-07-05T15:30:35Z</time>
      </trkpt>
      <trkpt lat="43.3777" lon="-1.67313">
        <ele>4.46</ele>
        <time>2021-07-05T15:30:49Z</time>
      </trkpt>
      <trkpt lat="43.3775" lon="-1.6737">
        <ele>5.42</ele>
        <time>2021-07-05T15:30:53Z</time>
      </trkpt>
      <trkpt lat="43.37742" lon="-1.67384">
        <ele>6.39</ele>
        <time>2021-07-05T15:30:54Z</time>
      </trkpt>
      <trkpt lat="43.3765" lon="-1.67537">
        <ele>11.67</ele>
        <time>2021-07-05T15:31:06Z</time>
      </trkpt>
      <trkpt lat="43.37638" lon="-1.67561">
        <ele>14.08</ele>
        <time>2021-07-05T15:31:08Z</time>
      </trkpt>
      <trkpt lat="43.37632" lon="-1.67576">
        <ele>14.08</ele>
        <time>2021-07-05T15:31:09Z</time>
      </trkpt>
      <trkpt lat="43.37626" lon="-1.67591">
        <ele>14.56</ele>
        <time>2021-07-05T15:31:10Z</time>
      </trkpt>
      <trkpt lat="43.37597" lon="-1.67689">
        <ele>17.92</ele>
        <time>2021-07-05T15:31:17Z</time>
      </trkpt>
      <trkpt lat="43.37593" lon="-1.67701">
        <ele>18.88</ele>
        <time>2021-07-05T15:31:18Z</time>
      </trkpt>
      <trkpt lat="43.37588" lon="-1.67713">
        <ele>17.92</ele>
        <time>2021-07-05T15:31:19Z</time>
      </trkpt>
      <trkpt lat="43.3748" lon="-1.67864">
        <ele>10.23</ele>
        <time>2021-07-05T15:31:32Z</time>
      </trkpt>
      <trkpt lat="43.37331" lon="-1.68009">
        <ele>10.23</ele>
        <time>2021-07-05T15:31:46Z</time>
      </trkpt>
      <trkpt lat="43.37278" lon="-1.68067">
        <ele>8.31</ele>
        <time>2021-07-05T15:31:52Z</time>
      </trkpt>
      <trkpt lat="43.37272" lon="-1.68075">
        <ele>8.79</ele>
        <time>2021-07-05T15:31:53Z</time>
      </trkpt>
      <trkpt lat="43.37267" lon="-1.68082">
        <ele>8.79</ele>
        <time>2021-07-05T15:31:54Z</time>
      </trkpt>
      <trkpt lat="43.37262" lon="-1.68091">
        <ele>9.27</ele>
        <time>2021-07-05T15:31:55Z</time>
      </trkpt>
      <trkpt lat="43.37258" lon="-1.681">
        <ele>9.27</ele>
        <time>2021-07-05T15:31:56Z</time>
      </trkpt>
      <trkpt lat="43.37251" lon="-1.68137">
        <ele>10.23</ele>
        <time>2021-07-05T15:32:01Z</time>
      </trkpt>
      <trkpt lat="43.37249" lon="-1.68144">
        <ele>10.23</ele>
        <time>2021-07-05T15:32:02Z</time>
      </trkpt>
      <trkpt lat="43.37248" lon="-1.68164">
        <ele>10.23</ele>
        <time>2021-07-05T15:32:03Z</time>
      </trkpt>
      <trkpt lat="43.37257" lon="-1.68201">
        <ele>8.79</ele>
        <time>2021-07-05T15:32:08Z</time>
      </trkpt>
      <trkpt lat="43.37261" lon="-1.6822">
        <ele>8.31</ele>
        <time>2021-07-05T15:32:09Z</time>
      </trkpt>
      <trkpt lat="43.37261" lon="-1.6822">
        <ele>7.83</ele>
        <time>2021-07-05T15:32:10Z</time>
      </trkpt>
      <trkpt lat="43.37268" lon="-1.68234">
        <ele>7.35</ele>
        <time>2021-07-05T15:32:11Z</time>
      </trkpt>
      <trkpt lat="43.37274" lon="-1.6824">
        <ele>6.87</ele>
        <time>2021-07-05T15:32:12Z</time>
      </trkpt>
      <trkpt lat="43.37274" lon="-1.6824">
        <ele>6.39</ele>
        <time>2021-07-05T15:32:13Z</time>
      </trkpt>
      <trkpt lat="43.37279" lon="-1.68244">
        <ele>5.91</ele>
        <time>2021-07-05T15:32:14Z</time>
      </trkpt>
      <trkpt lat="43.37287" lon="-1.68245">
        <ele>4.94</ele>
        <time>2021-07-05T15:32:15Z</time>
      </trkpt>
      <trkpt lat="43.37294" lon="-1.68247">
        <ele>4.46</ele>
        <time>2021-07-05T15:32:16Z</time>
      </trkpt>
      <trkpt lat="43.37301" lon="-1.68244">
        <ele>3.5</ele>
        <time>2021-07-05T15:32:17Z</time>
      </trkpt>
      <trkpt lat="43.37308" lon="-1.68239">
        <ele>2.54</ele>
        <time>2021-07-05T15:32:18Z</time>
      </trkpt>
      <trkpt lat="43.37314" lon="-1.68233">
        <ele>2.06</ele>
        <time>2021-07-05T15:32:19Z</time>
      </trkpt>
      <trkpt lat="43.37343" lon="-1.6821">
        <ele>2.54</ele>
        <time>2021-07-05T15:32:23Z</time>
      </trkpt>
      <trkpt lat="43.37355" lon="-1.68189">
        <ele>3.02</ele>
        <time>2021-07-05T15:32:25Z</time>
      </trkpt>
      <trkpt lat="43.3736" lon="-1.68175">
        <ele>3.5</ele>
        <time>2021-07-05T15:32:26Z</time>
      </trkpt>
      <trkpt lat="43.37368" lon="-1.68171">
        <ele>3.5</ele>
        <time>2021-07-05T15:32:27Z</time>
      </trkpt>
      <trkpt lat="43.37368" lon="-1.68171">
        <ele>3.98</ele>
        <time>2021-07-05T15:32:28Z</time>
      </trkpt>
      <trkpt lat="43.37374" lon="-1.68175">
        <ele>3.98</ele>
        <time>2021-07-05T15:32:29Z</time>
      </trkpt>
      <trkpt lat="43.3738" lon="-1.68179">
        <ele>3.5</ele>
        <time>2021-07-05T15:32:30Z</time>
      </trkpt>
      <trkpt lat="43.37383" lon="-1.68193">
        <ele>3.5</ele>
        <time>2021-07-05T15:32:31Z</time>
      </trkpt>
      <trkpt lat="43.37383" lon="-1.68202">
        <ele>3.5</ele>
        <time>2021-07-05T15:32:32Z</time>
      </trkpt>
      <trkpt lat="43.37383" lon="-1.68205">
        <ele>3.5</ele>
        <time>2021-07-05T15:32:33Z</time>
      </trkpt>
      <trkpt lat="43.37361" lon="-1.68305">
        <ele>-4.19</ele>
        <time>2021-07-05T15:32:41Z</time>
      </trkpt>
      <trkpt lat="43.37357" lon="-1.68322">
        <ele>-3.23</ele>
        <time>2021-07-05T15:32:42Z</time>
      </trkpt>
      <trkpt lat="43.37354" lon="-1.68337">
        <ele>-3.71</ele>
        <time>2021-07-05T15:32:43Z</time>
      </trkpt>
      <trkpt lat="43.37351" lon="-1.68352">
        <ele>-4.19</ele>
        <time>2021-07-05T15:32:44Z</time>
      </trkpt>
      <trkpt lat="43.37354" lon="-1.68384">
        <ele>-4.19</ele>
        <time>2021-07-05T15:32:45Z</time>
      </trkpt>
      <trkpt lat="43.37359" lon="-1.68397">
        <ele>-2.75</ele>
        <time>2021-07-05T15:32:46Z</time>
      </trkpt>
      <trkpt lat="43.37359" lon="-1.68397">
        <ele>-3.71</ele>
        <time>2021-07-05T15:32:47Z</time>
      </trkpt>
      <trkpt lat="43.37367" lon="-1.68412">
        <ele>-2.75</ele>
        <time>2021-07-05T15:32:48Z</time>
      </trkpt>
      <trkpt lat="43.37374" lon="-1.68426">
        <ele>-3.71</ele>
        <time>2021-07-05T15:32:49Z</time>
      </trkpt>
      <trkpt lat="43.37383" lon="-1.6844">
        <ele>-2.75</ele>
        <time>2021-07-05T15:32:50Z</time>
      </trkpt>
      <trkpt lat="43.37392" lon="-1.68452">
        <ele>-2.27</ele>
        <time>2021-07-05T15:32:51Z</time>
      </trkpt>
      <trkpt lat="43.37402" lon="-1.68464">
        <ele>-2.75</ele>
        <time>2021-07-05T15:32:52Z</time>
      </trkpt>
      <trkpt lat="43.37538" lon="-1.68586">
        <ele>-1.79</ele>
        <time>2021-07-05T15:33:05Z</time>
      </trkpt>
      <trkpt lat="43.37719" lon="-1.68695">
        <ele>-0.82</ele>
        <time>2021-07-05T15:33:19Z</time>
      </trkpt>
      <trkpt lat="43.37782" lon="-1.68739">
        <ele>-1.79</ele>
        <time>2021-07-05T15:33:23Z</time>
      </trkpt>
      <trkpt lat="43.37782" lon="-1.68739">
        <ele>-2.75</ele>
        <time>2021-07-05T15:33:24Z</time>
      </trkpt>
      <trkpt lat="43.37793" lon="-1.68753">
        <ele>-3.23</ele>
        <time>2021-07-05T15:33:25Z</time>
      </trkpt>
      <trkpt lat="43.37804" lon="-1.68767">
        <ele>-4.67</ele>
        <time>2021-07-05T15:33:26Z</time>
      </trkpt>
      <trkpt lat="43.37815" lon="-1.68782">
        <ele>-4.67</ele>
        <time>2021-07-05T15:33:27Z</time>
      </trkpt>
      <trkpt lat="43.37823" lon="-1.68799">
        <ele>-4.19</ele>
        <time>2021-07-05T15:33:28Z</time>
      </trkpt>
      <trkpt lat="43.37831" lon="-1.68816">
        <ele>-4.19</ele>
        <time>2021-07-05T15:33:29Z</time>
      </trkpt>
      <trkpt lat="43.37872" lon="-1.68893">
        <ele>-3.71</ele>
        <time>2021-07-05T15:33:33Z</time>
      </trkpt>
      <trkpt lat="43.37872" lon="-1.68893">
        <ele>-2.75</ele>
        <time>2021-07-05T15:33:34Z</time>
      </trkpt>
      <trkpt lat="43.37882" lon="-1.68907">
        <ele>-1.79</ele>
        <time>2021-07-05T15:33:35Z</time>
      </trkpt>
      <trkpt lat="43.37893" lon="-1.68915">
        <ele>-1.79</ele>
        <time>2021-07-05T15:33:36Z</time>
      </trkpt>
      <trkpt lat="43.37903" lon="-1.68922">
        <ele>-1.79</ele>
        <time>2021-07-05T15:33:37Z</time>
      </trkpt>
      <trkpt lat="43.37915" lon="-1.68929">
        <ele>-1.79</ele>
        <time>2021-07-05T15:33:38Z</time>
      </trkpt>
      <trkpt lat="43.37928" lon="-1.68932">
        <ele>-1.79</ele>
        <time>2021-07-05T15:33:39Z</time>
      </trkpt>
      <trkpt lat="43.37941" lon="-1.68935">
        <ele>-2.75</ele>
        <time>2021-07-05T15:33:40Z</time>
      </trkpt>
      <trkpt lat="43.37956" lon="-1.68934">
        <ele>-2.75</ele>
        <time>2021-07-05T15:33:41Z</time>
      </trkpt>
      <trkpt lat="43.37971" lon="-1.68932">
        <ele>-1.3</ele>
        <time>2021-07-05T15:33:42Z</time>
      </trkpt>
      <trkpt lat="43.37999" lon="-1.68926">
        <ele>-0.82</ele>
        <time>2021-07-05T15:33:43Z</time>
      </trkpt>
      <trkpt lat="43.38066" lon="-1.68911">
        <ele>-1.3</ele>
        <time>2021-07-05T15:33:49Z</time>
      </trkpt>
      <trkpt lat="43.38078" lon="-1.68911">
        <ele>-1.79</ele>
        <time>2021-07-05T15:33:50Z</time>
      </trkpt>
      <trkpt lat="43.3809" lon="-1.68914">
        <ele>-2.27</ele>
        <time>2021-07-05T15:33:51Z</time>
      </trkpt>
      <trkpt lat="43.38103" lon="-1.68919">
        <ele>-1.3</ele>
        <time>2021-07-05T15:33:52Z</time>
      </trkpt>
      <trkpt lat="43.38127" lon="-1.68936">
        <ele>-0.82</ele>
        <time>2021-07-05T15:33:53Z</time>
      </trkpt>
      <trkpt lat="43.38127" lon="-1.68936">
        <ele>-0.82</ele>
        <time>2021-07-05T15:33:54Z</time>
      </trkpt>
      <trkpt lat="43.38138" lon="-1.68949">
        <ele>-0.82</ele>
        <time>2021-07-05T15:33:55Z</time>
      </trkpt>
      <trkpt lat="43.3815" lon="-1.68964">
        <ele>-1.3</ele>
        <time>2021-07-05T15:33:56Z</time>
      </trkpt>
      <trkpt lat="43.38159" lon="-1.68982">
        <ele>-1.3</ele>
        <time>2021-07-05T15:33:57Z</time>
      </trkpt>
      <trkpt lat="43.38167" lon="-1.68999">
        <ele>-1.3</ele>
        <time>2021-07-05T15:33:58Z</time>
      </trkpt>
      <trkpt lat="43.38251" lon="-1.69167">
        <ele>-1.3</ele>
        <time>2021-07-05T15:34:09Z</time>
      </trkpt>
      <trkpt lat="43.38307" lon="-1.69282">
        <ele>0.62</ele>
        <time>2021-07-05T15:34:19Z</time>
      </trkpt>
      <trkpt lat="43.38318" lon="-1.69288">
        <ele>1.58</ele>
        <time>2021-07-05T15:34:21Z</time>
      </trkpt>
      <trkpt lat="43.38325" lon="-1.69297">
        <ele>1.58</ele>
        <time>2021-07-05T15:34:22Z</time>
      </trkpt>
      <trkpt lat="43.38327" lon="-1.69304">
        <ele>2.06</ele>
        <time>2021-07-05T15:34:23Z</time>
      </trkpt>
      <trkpt lat="43.38326" lon="-1.69324">
        <ele>2.54</ele>
        <time>2021-07-05T15:34:25Z</time>
      </trkpt>
      <trkpt lat="43.3833" lon="-1.69332">
        <ele>2.54</ele>
        <time>2021-07-05T15:34:26Z</time>
      </trkpt>
      <trkpt lat="43.38334" lon="-1.69341">
        <ele>3.02</ele>
        <time>2021-07-05T15:34:27Z</time>
      </trkpt>
      <trkpt lat="43.38388" lon="-1.69451">
        <ele>5.91</ele>
        <time>2021-07-05T15:34:36Z</time>
      </trkpt>
      <trkpt lat="43.38456" lon="-1.69608">
        <ele>10.23</ele>
        <time>2021-07-05T15:34:45Z</time>
      </trkpt>
      <trkpt lat="43.38462" lon="-1.69649">
        <ele>12.63</ele>
        <time>2021-07-05T15:34:46Z</time>
      </trkpt>
      <trkpt lat="43.38475" lon="-1.69749">
        <ele>21.77</ele>
        <time>2021-07-05T15:34:52Z</time>
      </trkpt>
      <trkpt lat="43.38482" lon="-1.69768">
        <ele>24.17</ele>
        <time>2021-07-05T15:34:53Z</time>
      </trkpt>
      <trkpt lat="43.38488" lon="-1.69787">
        <ele>25.61</ele>
        <time>2021-07-05T15:34:54Z</time>
      </trkpt>
      <trkpt lat="43.38497" lon="-1.69804">
        <ele>27.05</ele>
        <time>2021-07-05T15:34:55Z</time>
      </trkpt>
      <trkpt lat="43.38508" lon="-1.69818">
        <ele>28.02</ele>
        <time>2021-07-05T15:34:56Z</time>
      </trkpt>
      <trkpt lat="43.3852" lon="-1.69834">
        <ele>28.5</ele>
        <time>2021-07-05T15:34:57Z</time>
      </trkpt>
      <trkpt lat="43.38533" lon="-1.69849">
        <ele>28.98</ele>
        <time>2021-07-05T15:34:58Z</time>
      </trkpt>
      <trkpt lat="43.38546" lon="-1.69861">
        <ele>29.94</ele>
        <time>2021-07-05T15:34:59Z</time>
      </trkpt>
      <trkpt lat="43.3871" lon="-1.6999">
        <ele>36.19</ele>
        <time>2021-07-05T15:35:10Z</time>
      </trkpt>
      <trkpt lat="43.38727" lon="-1.69999">
        <ele>37.15</ele>
        <time>2021-07-05T15:35:11Z</time>
      </trkpt>
      <trkpt lat="43.38744" lon="-1.70004">
        <ele>38.59</ele>
        <time>2021-07-05T15:35:12Z</time>
      </trkpt>
      <trkpt lat="43.38761" lon="-1.70005">
        <ele>38.59</ele>
        <time>2021-07-05T15:35:13Z</time>
      </trkpt>
      <trkpt lat="43.38779" lon="-1.70002">
        <ele>38.11</ele>
        <time>2021-07-05T15:35:14Z</time>
      </trkpt>
      <trkpt lat="43.38797" lon="-1.69999">
        <ele>39.07</ele>
        <time>2021-07-05T15:35:15Z</time>
      </trkpt>
      <trkpt lat="43.38895" lon="-1.6998">
        <ele>41.47</ele>
        <time>2021-07-05T15:35:21Z</time>
      </trkpt>
      <trkpt lat="43.38912" lon="-1.69979">
        <ele>40.99</ele>
        <time>2021-07-05T15:35:22Z</time>
      </trkpt>
      <trkpt lat="43.38926" lon="-1.69982">
        <ele>40.99</ele>
        <time>2021-07-05T15:35:23Z</time>
      </trkpt>
      <trkpt lat="43.38941" lon="-1.69986">
        <ele>41.47</ele>
        <time>2021-07-05T15:35:24Z</time>
      </trkpt>
      <trkpt lat="43.38956" lon="-1.69991">
        <ele>42.44</ele>
        <time>2021-07-05T15:35:25Z</time>
      </trkpt>
      <trkpt lat="43.3897" lon="-1.69995">
        <ele>43.4</ele>
        <time>2021-07-05T15:35:26Z</time>
      </trkpt>
      <trkpt lat="43.38983" lon="-1.70006">
        <ele>43.4</ele>
        <time>2021-07-05T15:35:27Z</time>
      </trkpt>
      <trkpt lat="43.38995" lon="-1.70015">
        <ele>41.47</ele>
        <time>2021-07-05T15:35:28Z</time>
      </trkpt>
      <trkpt lat="43.39007" lon="-1.70028">
        <ele>40.99</ele>
        <time>2021-07-05T15:35:29Z</time>
      </trkpt>
      <trkpt lat="43.39042" lon="-1.70071">
        <ele>37.63</ele>
        <time>2021-07-05T15:35:34Z</time>
      </trkpt>
      <trkpt lat="43.39048" lon="-1.70074">
        <ele>38.11</ele>
        <time>2021-07-05T15:35:35Z</time>
      </trkpt>
      <trkpt lat="43.39054" lon="-1.70077">
        <ele>38.11</ele>
        <time>2021-07-05T15:35:36Z</time>
      </trkpt>
      <trkpt lat="43.39063" lon="-1.70081">
        <ele>38.59</ele>
        <time>2021-07-05T15:35:37Z</time>
      </trkpt>
      <trkpt lat="43.39063" lon="-1.70081">
        <ele>38.11</ele>
        <time>2021-07-05T15:35:38Z</time>
      </trkpt>
      <trkpt lat="43.39097" lon="-1.7009">
        <ele>36.67</ele>
        <time>2021-07-05T15:35:44Z</time>
      </trkpt>
      <trkpt lat="43.39102" lon="-1.70091">
        <ele>36.67</ele>
        <time>2021-07-05T15:35:45Z</time>
      </trkpt>
      <trkpt lat="43.39106" lon="-1.70095">
        <ele>36.67</ele>
        <time>2021-07-05T15:35:46Z</time>
      </trkpt>
      <trkpt lat="43.3911" lon="-1.70099">
        <ele>36.19</ele>
        <time>2021-07-05T15:35:47Z</time>
      </trkpt>
      <trkpt lat="43.3911" lon="-1.70099">
        <ele>36.19</ele>
        <time>2021-07-05T15:35:48Z</time>
      </trkpt>
      <trkpt lat="43.3911" lon="-1.70108">
        <ele>35.71</ele>
        <time>2021-07-05T15:35:49Z</time>
      </trkpt>
      <trkpt lat="43.3911" lon="-1.70108">
        <ele>35.71</ele>
        <time>2021-07-05T15:35:50Z</time>
      </trkpt>
      <trkpt lat="43.3911" lon="-1.70112">
        <ele>35.71</ele>
        <time>2021-07-05T15:35:51Z</time>
      </trkpt>
      <trkpt lat="43.3911" lon="-1.70116">
        <ele>35.23</ele>
        <time>2021-07-05T15:35:52Z</time>
      </trkpt>
      <trkpt lat="43.39106" lon="-1.70127">
        <ele>34.74</ele>
        <time>2021-07-05T15:35:53Z</time>
      </trkpt>
      <trkpt lat="43.39106" lon="-1.70127">
        <ele>34.26</ele>
        <time>2021-07-05T15:35:54Z</time>
      </trkpt>
      <trkpt lat="43.39063" lon="-1.7024">
        <ele>28.98</ele>
        <time>2021-07-05T15:36:05Z</time>
      </trkpt>
      <trkpt lat="43.39017" lon="-1.70388">
        <ele>33.3</ele>
        <time>2021-07-05T15:36:16Z</time>
      </trkpt>
      <trkpt lat="43.38949" lon="-1.70587">
        <ele>39.55</ele>
        <time>2021-07-05T15:36:28Z</time>
      </trkpt>
      <trkpt lat="43.38942" lon="-1.70601">
        <ele>39.07</ele>
        <time>2021-07-05T15:36:29Z</time>
      </trkpt>
      <trkpt lat="43.38913" lon="-1.7066">
        <ele>38.59</ele>
        <time>2021-07-05T15:36:33Z</time>
      </trkpt>
      <trkpt lat="43.38906" lon="-1.70675">
        <ele>38.59</ele>
        <time>2021-07-05T15:36:34Z</time>
      </trkpt>
      <trkpt lat="43.389" lon="-1.70691">
        <ele>39.07</ele>
        <time>2021-07-05T15:36:35Z</time>
      </trkpt>
      <trkpt lat="43.38883" lon="-1.70814">
        <ele>35.71</ele>
        <time>2021-07-05T15:36:42Z</time>
      </trkpt>
      <trkpt lat="43.38879" lon="-1.7083">
        <ele>35.23</ele>
        <time>2021-07-05T15:36:43Z</time>
      </trkpt>
      <trkpt lat="43.38875" lon="-1.70845">
        <ele>33.78</ele>
        <time>2021-07-05T15:36:44Z</time>
      </trkpt>
      <trkpt lat="43.38867" lon="-1.70858">
        <ele>32.34</ele>
        <time>2021-07-05T15:36:45Z</time>
      </trkpt>
      <trkpt lat="43.3886" lon="-1.70869">
        <ele>31.86</ele>
        <time>2021-07-05T15:36:46Z</time>
      </trkpt>
      <trkpt lat="43.3885" lon="-1.70879">
        <ele>31.86</ele>
        <time>2021-07-05T15:36:47Z</time>
      </trkpt>
      <trkpt lat="43.38841" lon="-1.70888">
        <ele>30.9</ele>
        <time>2021-07-05T15:36:48Z</time>
      </trkpt>
      <trkpt lat="43.3883" lon="-1.70893">
        <ele>30.9</ele>
        <time>2021-07-05T15:36:49Z</time>
      </trkpt>
      <trkpt lat="43.38818" lon="-1.70897">
        <ele>29.94</ele>
        <time>2021-07-05T15:36:50Z</time>
      </trkpt>
      <trkpt lat="43.38684" lon="-1.7095">
        <ele>25.13</ele>
        <time>2021-07-05T15:37:01Z</time>
      </trkpt>
      <trkpt lat="43.38674" lon="-1.7096">
        <ele>23.21</ele>
        <time>2021-07-05T15:37:02Z</time>
      </trkpt>
      <trkpt lat="43.38664" lon="-1.70971">
        <ele>21.77</ele>
        <time>2021-07-05T15:37:03Z</time>
      </trkpt>
      <trkpt lat="43.38654" lon="-1.70982">
        <ele>21.29</ele>
        <time>2021-07-05T15:37:04Z</time>
      </trkpt>
      <trkpt lat="43.38642" lon="-1.71014">
        <ele>19.84</ele>
        <time>2021-07-05T15:37:05Z</time>
      </trkpt>
      <trkpt lat="43.38642" lon="-1.71014">
        <ele>20.32</ele>
        <time>2021-07-05T15:37:06Z</time>
      </trkpt>
      <trkpt lat="43.38632" lon="-1.71046">
        <ele>19.36</ele>
        <time>2021-07-05T15:37:07Z</time>
      </trkpt>
      <trkpt lat="43.38632" lon="-1.71046">
        <ele>18.88</ele>
        <time>2021-07-05T15:37:08Z</time>
      </trkpt>
      <trkpt lat="43.38633" lon="-1.71063">
        <ele>17.92</ele>
        <time>2021-07-05T15:37:09Z</time>
      </trkpt>
      <trkpt lat="43.38634" lon="-1.71082">
        <ele>17.92</ele>
        <time>2021-07-05T15:37:10Z</time>
      </trkpt>
      <trkpt lat="43.38636" lon="-1.71102">
        <ele>17.92</ele>
        <time>2021-07-05T15:37:11Z</time>
      </trkpt>
      <trkpt lat="43.38639" lon="-1.71121">
        <ele>16.48</ele>
        <time>2021-07-05T15:37:12Z</time>
      </trkpt>
      <trkpt lat="43.38683" lon="-1.71322">
        <ele>14.56</ele>
        <time>2021-07-05T15:37:21Z</time>
      </trkpt>
      <trkpt lat="43.38683" lon="-1.71322">
        <ele>14.56</ele>
        <time>2021-07-05T15:37:22Z</time>
      </trkpt>
      <trkpt lat="43.3868" lon="-1.71342">
        <ele>14.08</ele>
        <time>2021-07-05T15:37:23Z</time>
      </trkpt>
      <trkpt lat="43.38678" lon="-1.71363">
        <ele>14.56</ele>
        <time>2021-07-05T15:37:24Z</time>
      </trkpt>
      <trkpt lat="43.38674" lon="-1.71383">
        <ele>14.08</ele>
        <time>2021-07-05T15:37:25Z</time>
      </trkpt>
      <trkpt lat="43.38598" lon="-1.71649">
        <ele>18.88</ele>
        <time>2021-07-05T15:37:37Z</time>
      </trkpt>
      <trkpt lat="43.38498" lon="-1.71937">
        <ele>31.86</ele>
        <time>2021-07-05T15:37:50Z</time>
      </trkpt>
      <trkpt lat="43.38419" lon="-1.72142">
        <ele>39.55</ele>
        <time>2021-07-05T15:38:01Z</time>
      </trkpt>
      <trkpt lat="43.38412" lon="-1.72171">
        <ele>38.59</ele>
        <time>2021-07-05T15:38:03Z</time>
      </trkpt>
      <trkpt lat="43.38409" lon="-1.72186">
        <ele>38.59</ele>
        <time>2021-07-05T15:38:04Z</time>
      </trkpt>
      <trkpt lat="43.38407" lon="-1.72199">
        <ele>38.59</ele>
        <time>2021-07-05T15:38:05Z</time>
      </trkpt>
      <trkpt lat="43.38405" lon="-1.72212">
        <ele>38.11</ele>
        <time>2021-07-05T15:38:06Z</time>
      </trkpt>
      <trkpt lat="43.38406" lon="-1.72227">
        <ele>38.11</ele>
        <time>2021-07-05T15:38:07Z</time>
      </trkpt>
      <trkpt lat="43.3841" lon="-1.72259">
        <ele>37.63</ele>
        <time>2021-07-05T15:38:08Z</time>
      </trkpt>
      <trkpt lat="43.3841" lon="-1.72259">
        <ele>36.67</ele>
        <time>2021-07-05T15:38:09Z</time>
      </trkpt>
      <trkpt lat="43.38436" lon="-1.72389">
        <ele>29.94</ele>
        <time>2021-07-05T15:38:17Z</time>
      </trkpt>
      <trkpt lat="43.38437" lon="-1.72406">
        <ele>28.98</ele>
        <time>2021-07-05T15:38:18Z</time>
      </trkpt>
      <trkpt lat="43.38437" lon="-1.72423">
        <ele>28.5</ele>
        <time>2021-07-05T15:38:19Z</time>
      </trkpt>
      <trkpt lat="43.38436" lon="-1.72441">
        <ele>28.02</ele>
        <time>2021-07-05T15:38:20Z</time>
      </trkpt>
      <trkpt lat="43.38433" lon="-1.72458">
        <ele>26.09</ele>
        <time>2021-07-05T15:38:21Z</time>
      </trkpt>
      <trkpt lat="43.3843" lon="-1.72473">
        <ele>24.65</ele>
        <time>2021-07-05T15:38:22Z</time>
      </trkpt>
      <trkpt lat="43.38425" lon="-1.72489">
        <ele>23.69</ele>
        <time>2021-07-05T15:38:23Z</time>
      </trkpt>
      <trkpt lat="43.3842" lon="-1.72504">
        <ele>23.21</ele>
        <time>2021-07-05T15:38:24Z</time>
      </trkpt>
      <trkpt lat="43.38414" lon="-1.72521">
        <ele>22.73</ele>
        <time>2021-07-05T15:38:25Z</time>
      </trkpt>
      <trkpt lat="43.38406" lon="-1.72535">
        <ele>21.29</ele>
        <time>2021-07-05T15:38:26Z</time>
      </trkpt>
      <trkpt lat="43.38396" lon="-1.72548">
        <ele>20.32</ele>
        <time>2021-07-05T15:38:27Z</time>
      </trkpt>
      <trkpt lat="43.38387" lon="-1.72561">
        <ele>19.84</ele>
        <time>2021-07-05T15:38:28Z</time>
      </trkpt>
      <trkpt lat="43.38377" lon="-1.7257">
        <ele>18.88</ele>
        <time>2021-07-05T15:38:29Z</time>
      </trkpt>
      <trkpt lat="43.38365" lon="-1.72581">
        <ele>18.88</ele>
        <time>2021-07-05T15:38:30Z</time>
      </trkpt>
      <trkpt lat="43.38229" lon="-1.72713">
        <ele>8.79</ele>
        <time>2021-07-05T15:38:42Z</time>
      </trkpt>
      <trkpt lat="43.3822" lon="-1.72727">
        <ele>8.31</ele>
        <time>2021-07-05T15:38:43Z</time>
      </trkpt>
      <trkpt lat="43.38211" lon="-1.72741">
        <ele>8.31</ele>
        <time>2021-07-05T15:38:44Z</time>
      </trkpt>
      <trkpt lat="43.38206" lon="-1.72757">
        <ele>8.31</ele>
        <time>2021-07-05T15:38:45Z</time>
      </trkpt>
      <trkpt lat="43.38201" lon="-1.72775">
        <ele>7.83</ele>
        <time>2021-07-05T15:38:46Z</time>
      </trkpt>
      <trkpt lat="43.38166" lon="-1.72933">
        <ele>11.67</ele>
        <time>2021-07-05T15:38:55Z</time>
      </trkpt>
      <trkpt lat="43.38166" lon="-1.72952">
        <ele>12.63</ele>
        <time>2021-07-05T15:38:56Z</time>
      </trkpt>
      <trkpt lat="43.38182" lon="-1.73109">
        <ele>15.04</ele>
        <time>2021-07-05T15:39:04Z</time>
      </trkpt>
      <trkpt lat="43.38183" lon="-1.73126">
        <ele>16</ele>
        <time>2021-07-05T15:39:05Z</time>
      </trkpt>
      <trkpt lat="43.38181" lon="-1.73143">
        <ele>16.96</ele>
        <time>2021-07-05T15:39:06Z</time>
      </trkpt>
      <trkpt lat="43.38178" lon="-1.73158">
        <ele>16.48</ele>
        <time>2021-07-05T15:39:07Z</time>
      </trkpt>
      <trkpt lat="43.38174" lon="-1.73174">
        <ele>15.52</ele>
        <time>2021-07-05T15:39:08Z</time>
      </trkpt>
      <trkpt lat="43.38166" lon="-1.73186">
        <ele>14.56</ele>
        <time>2021-07-05T15:39:09Z</time>
      </trkpt>
      <trkpt lat="43.38158" lon="-1.73198">
        <ele>14.08</ele>
        <time>2021-07-05T15:39:10Z</time>
      </trkpt>
      <trkpt lat="43.38148" lon="-1.73209">
        <ele>13.6</ele>
        <time>2021-07-05T15:39:11Z</time>
      </trkpt>
      <trkpt lat="43.38138" lon="-1.73218">
        <ele>13.12</ele>
        <time>2021-07-05T15:39:12Z</time>
      </trkpt>
      <trkpt lat="43.38126" lon="-1.73225">
        <ele>13.12</ele>
        <time>2021-07-05T15:39:13Z</time>
      </trkpt>
      <trkpt lat="43.38114" lon="-1.7323">
        <ele>13.6</ele>
        <time>2021-07-05T15:39:14Z</time>
      </trkpt>
      <trkpt lat="43.38101" lon="-1.7323">
        <ele>13.6</ele>
        <time>2021-07-05T15:39:15Z</time>
      </trkpt>
      <trkpt lat="43.38087" lon="-1.73231">
        <ele>12.15</ele>
        <time>2021-07-05T15:39:16Z</time>
      </trkpt>
      <trkpt lat="43.38045" lon="-1.73233">
        <ele>11.19</ele>
        <time>2021-07-05T15:39:19Z</time>
      </trkpt>
      <trkpt lat="43.38033" lon="-1.73236">
        <ele>9.75</ele>
        <time>2021-07-05T15:39:20Z</time>
      </trkpt>
      <trkpt lat="43.38021" lon="-1.73241">
        <ele>8.31</ele>
        <time>2021-07-05T15:39:21Z</time>
      </trkpt>
      <trkpt lat="43.38009" lon="-1.73249">
        <ele>7.83</ele>
        <time>2021-07-05T15:39:22Z</time>
      </trkpt>
      <trkpt lat="43.37996" lon="-1.73258">
        <ele>6.87</ele>
        <time>2021-07-05T15:39:23Z</time>
      </trkpt>
      <trkpt lat="43.37886" lon="-1.73351">
        <ele>4.46</ele>
        <time>2021-07-05T15:39:33Z</time>
      </trkpt>
      <trkpt lat="43.37811" lon="-1.73468">
        <ele>6.39</ele>
        <time>2021-07-05T15:39:44Z</time>
      </trkpt>
      <trkpt lat="43.37747" lon="-1.73577">
        <ele>10.23</ele>
        <time>2021-07-05T15:39:52Z</time>
      </trkpt>
      <trkpt lat="43.37741" lon="-1.73594">
        <ele>11.19</ele>
        <time>2021-07-05T15:39:53Z</time>
      </trkpt>
      <trkpt lat="43.37737" lon="-1.73611">
        <ele>12.15</ele>
        <time>2021-07-05T15:39:54Z</time>
      </trkpt>
      <trkpt lat="43.37735" lon="-1.73628">
        <ele>14.08</ele>
        <time>2021-07-05T15:39:55Z</time>
      </trkpt>
      <trkpt lat="43.37734" lon="-1.73646">
        <ele>15.04</ele>
        <time>2021-07-05T15:39:56Z</time>
      </trkpt>
      <trkpt lat="43.37737" lon="-1.7368">
        <ele>14.56</ele>
        <time>2021-07-05T15:39:57Z</time>
      </trkpt>
      <trkpt lat="43.37737" lon="-1.7368">
        <ele>15.52</ele>
        <time>2021-07-05T15:39:58Z</time>
      </trkpt>
      <trkpt lat="43.37741" lon="-1.73699">
        <ele>16.48</ele>
        <time>2021-07-05T15:39:59Z</time>
      </trkpt>
      <trkpt lat="43.37757" lon="-1.73781">
        <ele>18.4</ele>
        <time>2021-07-05T15:40:04Z</time>
      </trkpt>
      <trkpt lat="43.37759" lon="-1.73797">
        <ele>19.36</ele>
        <time>2021-07-05T15:40:05Z</time>
      </trkpt>
      <trkpt lat="43.37752" lon="-1.73829">
        <ele>20.32</ele>
        <time>2021-07-05T15:40:06Z</time>
      </trkpt>
      <trkpt lat="43.37749" lon="-1.73845">
        <ele>20.81</ele>
        <time>2021-07-05T15:40:07Z</time>
      </trkpt>
      <trkpt lat="43.37749" lon="-1.73845">
        <ele>21.77</ele>
        <time>2021-07-05T15:40:08Z</time>
      </trkpt>
      <trkpt lat="43.37743" lon="-1.73858">
        <ele>23.21</ele>
        <time>2021-07-05T15:40:09Z</time>
      </trkpt>
      <trkpt lat="43.37735" lon="-1.7387">
        <ele>24.17</ele>
        <time>2021-07-05T15:40:10Z</time>
      </trkpt>
      <trkpt lat="43.37727" lon="-1.73882">
        <ele>25.61</ele>
        <time>2021-07-05T15:40:11Z</time>
      </trkpt>
      <trkpt lat="43.37718" lon="-1.73895">
        <ele>26.57</ele>
        <time>2021-07-05T15:40:12Z</time>
      </trkpt>
      <trkpt lat="43.37676" lon="-1.73937">
        <ele>29.46</ele>
        <time>2021-07-05T15:40:16Z</time>
      </trkpt>
      <trkpt lat="43.37668" lon="-1.7395">
        <ele>30.42</ele>
        <time>2021-07-05T15:40:17Z</time>
      </trkpt>
      <trkpt lat="43.37661" lon="-1.73963">
        <ele>30.9</ele>
        <time>2021-07-05T15:40:18Z</time>
      </trkpt>
      <trkpt lat="43.37648" lon="-1.73992">
        <ele>31.38</ele>
        <time>2021-07-05T15:40:19Z</time>
      </trkpt>
      <trkpt lat="43.37648" lon="-1.73992">
        <ele>32.34</ele>
        <time>2021-07-05T15:40:20Z</time>
      </trkpt>
      <trkpt lat="43.37643" lon="-1.74026">
        <ele>33.78</ele>
        <time>2021-07-05T15:40:21Z</time>
      </trkpt>
      <trkpt lat="43.37643" lon="-1.74026">
        <ele>33.78</ele>
        <time>2021-07-05T15:40:22Z</time>
      </trkpt>
      <trkpt lat="43.37641" lon="-1.74041">
        <ele>34.74</ele>
        <time>2021-07-05T15:40:23Z</time>
      </trkpt>
      <trkpt lat="43.37644" lon="-1.74059">
        <ele>35.23</ele>
        <time>2021-07-05T15:40:24Z</time>
      </trkpt>
      <trkpt lat="43.37647" lon="-1.74076">
        <ele>35.71</ele>
        <time>2021-07-05T15:40:25Z</time>
      </trkpt>
      <trkpt lat="43.37655" lon="-1.7411">
        <ele>37.15</ele>
        <time>2021-07-05T15:40:26Z</time>
      </trkpt>
      <trkpt lat="43.37655" lon="-1.7411">
        <ele>37.63</ele>
        <time>2021-07-05T15:40:27Z</time>
      </trkpt>
      <trkpt lat="43.37686" lon="-1.74196">
        <ele>40.51</ele>
        <time>2021-07-05T15:40:33Z</time>
      </trkpt>
      <trkpt lat="43.37689" lon="-1.74204">
        <ele>40.99</ele>
        <time>2021-07-05T15:40:34Z</time>
      </trkpt>
      <trkpt lat="43.37691" lon="-1.74211">
        <ele>41.47</ele>
        <time>2021-07-05T15:40:35Z</time>
      </trkpt>
      <trkpt lat="43.37694" lon="-1.74217">
        <ele>41.95</ele>
        <time>2021-07-05T15:40:36Z</time>
      </trkpt>
      <trkpt lat="43.37699" lon="-1.74233">
        <ele>42.44</ele>
        <time>2021-07-05T15:40:37Z</time>
      </trkpt>
      <trkpt lat="43.37699" lon="-1.74233">
        <ele>42.44</ele>
        <time>2021-07-05T15:40:38Z</time>
      </trkpt>
      <trkpt lat="43.37702" lon="-1.74241">
        <ele>42.92</ele>
        <time>2021-07-05T15:40:39Z</time>
      </trkpt>
      <trkpt lat="43.37705" lon="-1.74249">
        <ele>42.92</ele>
        <time>2021-07-05T15:40:40Z</time>
      </trkpt>
      <trkpt lat="43.37708" lon="-1.74258">
        <ele>42.92</ele>
        <time>2021-07-05T15:40:41Z</time>
      </trkpt>
      <trkpt lat="43.37733" lon="-1.74365">
        <ele>42.44</ele>
        <time>2021-07-05T15:40:50Z</time>
      </trkpt>
      <trkpt lat="43.37735" lon="-1.74576">
        <ele>46.28</ele>
        <time>2021-07-05T15:41:03Z</time>
      </trkpt>
      <trkpt lat="43.37693" lon="-1.74729">
        <ele>43.88</ele>
        <time>2021-07-05T15:41:12Z</time>
      </trkpt>
      <trkpt lat="43.37686" lon="-1.74744">
        <ele>43.4</ele>
        <time>2021-07-05T15:41:13Z</time>
      </trkpt>
      <trkpt lat="43.3768" lon="-1.74757">
        <ele>42.92</ele>
        <time>2021-07-05T15:41:14Z</time>
      </trkpt>
      <trkpt lat="43.37672" lon="-1.7477">
        <ele>42.92</ele>
        <time>2021-07-05T15:41:15Z</time>
      </trkpt>
      <trkpt lat="43.37646" lon="-1.74806">
        <ele>45.8</ele>
        <time>2021-07-05T15:41:18Z</time>
      </trkpt>
      <trkpt lat="43.37638" lon="-1.74819">
        <ele>46.76</ele>
        <time>2021-07-05T15:41:19Z</time>
      </trkpt>
      <trkpt lat="43.37631" lon="-1.74835">
        <ele>47.24</ele>
        <time>2021-07-05T15:41:20Z</time>
      </trkpt>
      <trkpt lat="43.37625" lon="-1.7485">
        <ele>48.2</ele>
        <time>2021-07-05T15:41:21Z</time>
      </trkpt>
      <trkpt lat="43.37622" lon="-1.74866">
        <ele>49.16</ele>
        <time>2021-07-05T15:41:22Z</time>
      </trkpt>
      <trkpt lat="43.37619" lon="-1.74882">
        <ele>50.13</ele>
        <time>2021-07-05T15:41:23Z</time>
      </trkpt>
      <trkpt lat="43.37603" lon="-1.75039">
        <ele>52.53</ele>
        <time>2021-07-05T15:41:34Z</time>
      </trkpt>
      <trkpt lat="43.37587" lon="-1.75106">
        <ele>52.05</ele>
        <time>2021-07-05T15:41:41Z</time>
      </trkpt>
      <trkpt lat="43.37583" lon="-1.75115">
        <ele>52.53</ele>
        <time>2021-07-05T15:41:42Z</time>
      </trkpt>
      <trkpt lat="43.37578" lon="-1.75124">
        <ele>52.53</ele>
        <time>2021-07-05T15:41:43Z</time>
      </trkpt>
      <trkpt lat="43.37574" lon="-1.75133">
        <ele>52.05</ele>
        <time>2021-07-05T15:41:44Z</time>
      </trkpt>
      <trkpt lat="43.37561" lon="-1.75149">
        <ele>51.57</ele>
        <time>2021-07-05T15:41:45Z</time>
      </trkpt>
      <trkpt lat="43.37561" lon="-1.75149">
        <ele>51.09</ele>
        <time>2021-07-05T15:41:46Z</time>
      </trkpt>
      <trkpt lat="43.37554" lon="-1.75156">
        <ele>51.09</ele>
        <time>2021-07-05T15:41:47Z</time>
      </trkpt>
      <trkpt lat="43.37547" lon="-1.75161">
        <ele>50.61</ele>
        <time>2021-07-05T15:41:48Z</time>
      </trkpt>
      <trkpt lat="43.37521" lon="-1.75172">
        <ele>51.09</ele>
        <time>2021-07-05T15:41:52Z</time>
      </trkpt>
      <trkpt lat="43.37516" lon="-1.75174">
        <ele>51.09</ele>
        <time>2021-07-05T15:41:53Z</time>
      </trkpt>
      <trkpt lat="43.37513" lon="-1.75176">
        <ele>50.61</ele>
        <time>2021-07-05T15:41:54Z</time>
      </trkpt>
      <trkpt lat="43.3751" lon="-1.75182">
        <ele>50.61</ele>
        <time>2021-07-05T15:41:55Z</time>
      </trkpt>
      <trkpt lat="43.37509" lon="-1.75186">
        <ele>50.61</ele>
        <time>2021-07-05T15:41:56Z</time>
      </trkpt>
      <trkpt lat="43.37507" lon="-1.75192">
        <ele>50.61</ele>
        <time>2021-07-05T15:41:57Z</time>
      </trkpt>
      <trkpt lat="43.37504" lon="-1.75196">
        <ele>51.09</ele>
        <time>2021-07-05T15:41:58Z</time>
      </trkpt>
      <trkpt lat="43.37498" lon="-1.75199">
        <ele>51.09</ele>
        <time>2021-07-05T15:41:59Z</time>
      </trkpt>
      <trkpt lat="43.37494" lon="-1.75199">
        <ele>51.57</ele>
        <time>2021-07-05T15:42:00Z</time>
      </trkpt>
      <trkpt lat="43.37489" lon="-1.75198">
        <ele>51.57</ele>
        <time>2021-07-05T15:42:01Z</time>
      </trkpt>
      <trkpt lat="43.37486" lon="-1.75198">
        <ele>52.05</ele>
        <time>2021-07-05T15:42:02Z</time>
      </trkpt>
      <trkpt lat="43.37486" lon="-1.75198">
        <ele>52.05</ele>
        <time>2021-07-05T15:42:03Z</time>
      </trkpt>
      <trkpt lat="43.37475" lon="-1.75184">
        <ele>52.05</ele>
        <time>2021-07-05T15:42:04Z</time>
      </trkpt>
      <trkpt lat="43.3747" lon="-1.75186">
        <ele>52.05</ele>
        <time>2021-07-05T15:42:05Z</time>
      </trkpt>
      <trkpt lat="43.37464" lon="-1.75189">
        <ele>52.05</ele>
        <time>2021-07-05T15:42:06Z</time>
      </trkpt>
      <trkpt lat="43.37458" lon="-1.75192">
        <ele>52.05</ele>
        <time>2021-07-05T15:42:07Z</time>
      </trkpt>
      <trkpt lat="43.37452" lon="-1.75195">
        <ele>52.05</ele>
        <time>2021-07-05T15:42:08Z</time>
      </trkpt>
      <trkpt lat="43.37445" lon="-1.75199">
        <ele>51.57</ele>
        <time>2021-07-05T15:42:09Z</time>
      </trkpt>
      <trkpt lat="43.37426" lon="-1.75214">
        <ele>51.09</ele>
        <time>2021-07-05T15:42:12Z</time>
      </trkpt>
      <trkpt lat="43.37419" lon="-1.7522">
        <ele>50.61</ele>
        <time>2021-07-05T15:42:13Z</time>
      </trkpt>
      <trkpt lat="43.37375" lon="-1.75312">
        <ele>46.28</ele>
        <time>2021-07-05T15:42:23Z</time>
      </trkpt>
      <trkpt lat="43.37349" lon="-1.75502">
        <ele>37.15</ele>
        <time>2021-07-05T15:42:37Z</time>
      </trkpt>
      <trkpt lat="43.3735" lon="-1.7553">
        <ele>35.23</ele>
        <time>2021-07-05T15:42:39Z</time>
      </trkpt>
      <trkpt lat="43.37354" lon="-1.75544">
        <ele>35.71</ele>
        <time>2021-07-05T15:42:40Z</time>
      </trkpt>
      <trkpt lat="43.37359" lon="-1.75558">
        <ele>36.67</ele>
        <time>2021-07-05T15:42:41Z</time>
      </trkpt>
      <trkpt lat="43.37364" lon="-1.75571">
        <ele>36.67</ele>
        <time>2021-07-05T15:42:42Z</time>
      </trkpt>
      <trkpt lat="43.37371" lon="-1.75582">
        <ele>36.67</ele>
        <time>2021-07-05T15:42:43Z</time>
      </trkpt>
      <trkpt lat="43.37378" lon="-1.75592">
        <ele>36.67</ele>
        <time>2021-07-05T15:42:44Z</time>
      </trkpt>
      <trkpt lat="43.37387" lon="-1.75602">
        <ele>37.63</ele>
        <time>2021-07-05T15:42:45Z</time>
      </trkpt>
      <trkpt lat="43.37396" lon="-1.7561">
        <ele>37.15</ele>
        <time>2021-07-05T15:42:46Z</time>
      </trkpt>
      <trkpt lat="43.37404" lon="-1.75617">
        <ele>37.15</ele>
        <time>2021-07-05T15:42:47Z</time>
      </trkpt>
      <trkpt lat="43.3743" lon="-1.7564">
        <ele>34.26</ele>
        <time>2021-07-05T15:42:50Z</time>
      </trkpt>
      <trkpt lat="43.37441" lon="-1.75648">
        <ele>31.86</ele>
        <time>2021-07-05T15:42:51Z</time>
      </trkpt>
      <trkpt lat="43.37447" lon="-1.75656">
        <ele>29.94</ele>
        <time>2021-07-05T15:42:52Z</time>
      </trkpt>
      <trkpt lat="43.37454" lon="-1.75668">
        <ele>29.46</ele>
        <time>2021-07-05T15:42:53Z</time>
      </trkpt>
      <trkpt lat="43.37461" lon="-1.75681">
        <ele>28.98</ele>
        <time>2021-07-05T15:42:54Z</time>
      </trkpt>
      <trkpt lat="43.37464" lon="-1.75695">
        <ele>27.53</ele>
        <time>2021-07-05T15:42:55Z</time>
      </trkpt>
      <trkpt lat="43.37467" lon="-1.75711">
        <ele>26.09</ele>
        <time>2021-07-05T15:42:56Z</time>
      </trkpt>
      <trkpt lat="43.37465" lon="-1.75726">
        <ele>25.13</ele>
        <time>2021-07-05T15:42:57Z</time>
      </trkpt>
      <trkpt lat="43.37463" lon="-1.75742">
        <ele>23.69</ele>
        <time>2021-07-05T15:42:58Z</time>
      </trkpt>
      <trkpt lat="43.37459" lon="-1.75756">
        <ele>22.73</ele>
        <time>2021-07-05T15:42:59Z</time>
      </trkpt>
      <trkpt lat="43.37455" lon="-1.7577">
        <ele>21.77</ele>
        <time>2021-07-05T15:43:00Z</time>
      </trkpt>
      <trkpt lat="43.37447" lon="-1.75781">
        <ele>21.29</ele>
        <time>2021-07-05T15:43:01Z</time>
      </trkpt>
      <trkpt lat="43.37439" lon="-1.75793">
        <ele>19.84</ele>
        <time>2021-07-05T15:43:02Z</time>
      </trkpt>
      <trkpt lat="43.37377" lon="-1.75877">
        <ele>16.48</ele>
        <time>2021-07-05T15:43:10Z</time>
      </trkpt>
      <trkpt lat="43.37371" lon="-1.75888">
        <ele>16</ele>
        <time>2021-07-05T15:43:11Z</time>
      </trkpt>
      <trkpt lat="43.37367" lon="-1.759">
        <ele>15.04</ele>
        <time>2021-07-05T15:43:12Z</time>
      </trkpt>
      <trkpt lat="43.37364" lon="-1.75913">
        <ele>14.08</ele>
        <time>2021-07-05T15:43:13Z</time>
      </trkpt>
      <trkpt lat="43.37362" lon="-1.75927">
        <ele>12.63</ele>
        <time>2021-07-05T15:43:14Z</time>
      </trkpt>
      <trkpt lat="43.37362" lon="-1.75954">
        <ele>11.67</ele>
        <time>2021-07-05T15:43:15Z</time>
      </trkpt>
      <trkpt lat="43.37362" lon="-1.75954">
        <ele>11.67</ele>
        <time>2021-07-05T15:43:16Z</time>
      </trkpt>
      <trkpt lat="43.37364" lon="-1.75965">
        <ele>11.67</ele>
        <time>2021-07-05T15:43:17Z</time>
      </trkpt>
      <trkpt lat="43.37366" lon="-1.75977">
        <ele>13.12</ele>
        <time>2021-07-05T15:43:18Z</time>
      </trkpt>
      <trkpt lat="43.3737" lon="-1.75987">
        <ele>13.6</ele>
        <time>2021-07-05T15:43:19Z</time>
      </trkpt>
      <trkpt lat="43.37375" lon="-1.75998">
        <ele>13.12</ele>
        <time>2021-07-05T15:43:20Z</time>
      </trkpt>
      <trkpt lat="43.37381" lon="-1.76007">
        <ele>13.12</ele>
        <time>2021-07-05T15:43:21Z</time>
      </trkpt>
      <trkpt lat="43.37389" lon="-1.76016">
        <ele>13.12</ele>
        <time>2021-07-05T15:43:22Z</time>
      </trkpt>
      <trkpt lat="43.37398" lon="-1.76027">
        <ele>13.12</ele>
        <time>2021-07-05T15:43:23Z</time>
      </trkpt>
      <trkpt lat="43.37407" lon="-1.76033">
        <ele>12.63</ele>
        <time>2021-07-05T15:43:24Z</time>
      </trkpt>
      <trkpt lat="43.37417" lon="-1.76038">
        <ele>12.15</ele>
        <time>2021-07-05T15:43:25Z</time>
      </trkpt>
      <trkpt lat="43.37426" lon="-1.76042">
        <ele>11.19</ele>
        <time>2021-07-05T15:43:26Z</time>
      </trkpt>
      <trkpt lat="43.37504" lon="-1.76099">
        <ele>3.02</ele>
        <time>2021-07-05T15:43:35Z</time>
      </trkpt>
      <trkpt lat="43.37542" lon="-1.76173">
        <ele>0.14</ele>
        <time>2021-07-05T15:43:44Z</time>
      </trkpt>
      <trkpt lat="43.37561" lon="-1.76267">
        <ele>2.54</ele>
        <time>2021-07-05T15:43:58Z</time>
      </trkpt>
      <trkpt lat="43.37561" lon="-1.76274">
        <ele>2.54</ele>
        <time>2021-07-05T15:43:59Z</time>
      </trkpt>
      <trkpt lat="43.37561" lon="-1.76282">
        <ele>2.06</ele>
        <time>2021-07-05T15:44:00Z</time>
      </trkpt>
      <trkpt lat="43.3756" lon="-1.76289">
        <ele>2.06</ele>
        <time>2021-07-05T15:44:01Z</time>
      </trkpt>
      <trkpt lat="43.37558" lon="-1.76296">
        <ele>2.06</ele>
        <time>2021-07-05T15:44:02Z</time>
      </trkpt>
      <trkpt lat="43.37545" lon="-1.7635">
        <ele>1.1</ele>
        <time>2021-07-05T15:44:12Z</time>
      </trkpt>
      <trkpt lat="43.37524" lon="-1.76433">
        <ele>0.62</ele>
        <time>2021-07-05T15:44:26Z</time>
      </trkpt>
      <trkpt lat="43.37505" lon="-1.76515">
        <ele>0.14</ele>
        <time>2021-07-05T15:44:41Z</time>
      </trkpt>
      <trkpt lat="43.37471" lon="-1.76664">
        <ele>0.14</ele>
        <time>2021-07-05T15:45:01Z</time>
      </trkpt>
      <trkpt lat="43.3744" lon="-1.76801">
        <ele>0.14</ele>
        <time>2021-07-05T15:45:18Z</time>
      </trkpt>
      <trkpt lat="43.37411" lon="-1.76937">
        <ele>-0.34</ele>
        <time>2021-07-05T15:45:36Z</time>
      </trkpt>
      <trkpt lat="43.37386" lon="-1.77047">
        <ele>-0.34</ele>
        <time>2021-07-05T15:45:52Z</time>
      </trkpt>
      <trkpt lat="43.3737" lon="-1.77125">
        <ele>-0.82</ele>
        <time>2021-07-05T15:46:05Z</time>
      </trkpt>
      <trkpt lat="43.37362" lon="-1.77113">
        <ele>-0.82</ele>
        <time>2021-07-05T15:46:06Z</time>
      </trkpt>
      <trkpt lat="43.37358" lon="-1.77113">
        <ele>-0.82</ele>
        <time>2021-07-05T15:46:07Z</time>
      </trkpt>
      <trkpt lat="43.37354" lon="-1.77113">
        <ele>-0.82</ele>
        <time>2021-07-05T15:46:09Z</time>
      </trkpt>
      <trkpt lat="43.37328" lon="-1.77116">
        <ele>-0.34</ele>
        <time>2021-07-05T15:46:15Z</time>
      </trkpt>
      <trkpt lat="43.37325" lon="-1.77109">
        <ele>-0.34</ele>
        <time>2021-07-05T15:46:16Z</time>
      </trkpt>
      <trkpt lat="43.37325" lon="-1.77109">
        <ele>-0.34</ele>
        <time>2021-07-05T15:46:17Z</time>
      </trkpt>
      <trkpt lat="43.37326" lon="-1.77105">
        <ele>-0.34</ele>
        <time>2021-07-05T15:46:18Z</time>
      </trkpt>
      <trkpt lat="43.37327" lon="-1.771">
        <ele>-0.34</ele>
        <time>2021-07-05T15:46:19Z</time>
      </trkpt>
      <trkpt lat="43.3733" lon="-1.77087">
        <ele>-0.82</ele>
        <time>2021-07-05T15:46:20Z</time>
      </trkpt>
      <trkpt lat="43.37346" lon="-1.77014">
        <ele>0.62</ele>
        <time>2021-07-05T15:46:33Z</time>
      </trkpt>
      <trkpt lat="43.37347" lon="-1.76995">
        <ele>1.58</ele>
        <time>2021-07-05T15:46:36Z</time>
      </trkpt>
      <trkpt lat="43.37351" lon="-1.76962">
        <ele>3.02</ele>
        <time>2021-07-05T15:46:43Z</time>
      </trkpt>
      <trkpt lat="43.37351" lon="-1.76957">
        <ele>1.58</ele>
        <time>2021-07-05T15:46:44Z</time>
      </trkpt>
      <trkpt lat="43.37351" lon="-1.76957">
        <ele>1.58</ele>
        <time>2021-07-05T15:46:45Z</time>
      </trkpt>
      <trkpt lat="43.3735" lon="-1.76957">
        <ele>1.1</ele>
        <time>2021-07-05T15:46:46Z</time>
      </trkpt>
      <trkpt lat="43.37347" lon="-1.76955">
        <ele>1.1</ele>
        <time>2021-07-05T15:46:47Z</time>
      </trkpt>
      <trkpt lat="43.37343" lon="-1.76954">
        <ele>1.58</ele>
        <time>2021-07-05T15:46:48Z</time>
      </trkpt>
      <trkpt lat="43.37339" lon="-1.76952">
        <ele>2.06</ele>
        <time>2021-07-05T15:46:49Z</time>
      </trkpt>
      <trkpt lat="43.37335" lon="-1.76949">
        <ele>2.06</ele>
        <time>2021-07-05T15:46:50Z</time>
      </trkpt>
      <trkpt lat="43.37331" lon="-1.76944">
        <ele>2.06</ele>
        <time>2021-07-05T15:46:51Z</time>
      </trkpt>
      <trkpt lat="43.37328" lon="-1.76939">
        <ele>2.06</ele>
        <time>2021-07-05T15:46:52Z</time>
      </trkpt>
      <trkpt lat="43.37326" lon="-1.76934">
        <ele>1.58</ele>
        <time>2021-07-05T15:46:53Z</time>
      </trkpt>
      <trkpt lat="43.37325" lon="-1.76929">
        <ele>1.58</ele>
        <time>2021-07-05T15:46:54Z</time>
      </trkpt>
      <trkpt lat="43.37324" lon="-1.76924">
        <ele>1.1</ele>
        <time>2021-07-05T15:46:55Z</time>
      </trkpt>
      <trkpt lat="43.37323" lon="-1.76918">
        <ele>1.1</ele>
        <time>2021-07-05T15:46:56Z</time>
      </trkpt>
      <trkpt lat="43.37326" lon="-1.76908">
        <ele>1.1</ele>
        <time>2021-07-05T15:46:57Z</time>
      </trkpt>
      <trkpt lat="43.37326" lon="-1.76908">
        <ele>1.1</ele>
        <time>2021-07-05T15:46:58Z</time>
      </trkpt>
      <trkpt lat="43.37329" lon="-1.76896">
        <ele>1.58</ele>
        <time>2021-07-05T15:46:59Z</time>
      </trkpt>
      <trkpt lat="43.37329" lon="-1.76896">
        <ele>2.06</ele>
        <time>2021-07-05T15:47:00Z</time>
      </trkpt>
      <trkpt lat="43.37332" lon="-1.76894">
        <ele>2.06</ele>
        <time>2021-07-05T15:47:01Z</time>
      </trkpt>
      <trkpt lat="43.37336" lon="-1.76891">
        <ele>1.58</ele>
        <time>2021-07-05T15:47:02Z</time>
      </trkpt>
      <trkpt lat="43.3734" lon="-1.76888">
        <ele>2.06</ele>
        <time>2021-07-05T15:47:03Z</time>
      </trkpt>
      <trkpt lat="43.37344" lon="-1.76885">
        <ele>2.54</ele>
        <time>2021-07-05T15:47:04Z</time>
      </trkpt>
      <trkpt lat="43.37353" lon="-1.76883">
        <ele>3.02</ele>
        <time>2021-07-05T15:47:05Z</time>
      </trkpt>
      <trkpt lat="43.37357" lon="-1.76884">
        <ele>3.02</ele>
        <time>2021-07-05T15:47:06Z</time>
      </trkpt>
      <trkpt lat="43.3736" lon="-1.76885">
        <ele>3.5</ele>
        <time>2021-07-05T15:47:07Z</time>
      </trkpt>
      <trkpt lat="43.3736" lon="-1.76885">
        <ele>3.98</ele>
        <time>2021-07-05T15:47:08Z</time>
      </trkpt>
      <trkpt lat="43.37364" lon="-1.76887">
        <ele>3.98</ele>
        <time>2021-07-05T15:47:09Z</time>
      </trkpt>
      <trkpt lat="43.37366" lon="-1.76891">
        <ele>3.98</ele>
        <time>2021-07-05T15:47:10Z</time>
      </trkpt>
      <trkpt lat="43.37368" lon="-1.76895">
        <ele>3.98</ele>
        <time>2021-07-05T15:47:11Z</time>
      </trkpt>
      <trkpt lat="43.3737" lon="-1.76899">
        <ele>3.5</ele>
        <time>2021-07-05T15:47:12Z</time>
      </trkpt>
      <trkpt lat="43.37374" lon="-1.76907">
        <ele>3.98</ele>
        <time>2021-07-05T15:47:13Z</time>
      </trkpt>
      <trkpt lat="43.37374" lon="-1.76907">
        <ele>3.02</ele>
        <time>2021-07-05T15:47:14Z</time>
      </trkpt>
      <trkpt lat="43.37369" lon="-1.76945">
        <ele>3.02</ele>
        <time>2021-07-05T15:47:23Z</time>
      </trkpt>
      <trkpt lat="43.37368" lon="-1.76948">
        <ele>3.5</ele>
        <time>2021-07-05T15:47:24Z</time>
      </trkpt>
      <trkpt lat="43.37371" lon="-1.76953">
        <ele>3.5</ele>
        <time>2021-07-05T15:47:25Z</time>
      </trkpt>
      <trkpt lat="43.37392" lon="-1.76981">
        <ele>5.42</ele>
        <time>2021-07-05T15:47:39Z</time>
      </trkpt>
      <trkpt lat="43.37397" lon="-1.76995">
        <ele>4.94</ele>
        <time>2021-07-05T15:47:49Z</time>
      </trkpt>
      <trkpt lat="43.37397" lon="-1.76995">
        <ele>4.94</ele>
        <time>2021-07-05T15:47:50Z</time>
      </trkpt>
      <trkpt lat="43.37396" lon="-1.76998">
        <ele>4.94</ele>
        <time>2021-07-05T15:47:51Z</time>
      </trkpt>
      <trkpt lat="43.37384" lon="-1.77055">
        <ele>3.5</ele>
        <time>2021-07-05T15:48:06Z</time>
      </trkpt>
      <trkpt lat="43.37384" lon="-1.77055">
        <ele>3.5</ele>
        <time>2021-07-05T15:48:42Z</time>
      </trkpt>
      <trkpt lat="43.37385" lon="-1.77052">
        <ele>3.5</ele>
        <time>2021-07-05T15:48:43Z</time>
      </trkpt>
      <trkpt lat="43.37385" lon="-1.77054">
        <ele>3.5</ele>
        <time>2021-07-05T15:48:54Z</time>
      </trkpt>
      <trkpt lat="43.37385" lon="-1.77054">
        <ele>3.5</ele>
        <time>2021-07-05T15:49:16Z</time>
      </trkpt>
      <trkpt lat="43.37385" lon="-1.77054">
        <ele>3.5</ele>
        <time>2021-07-05T15:49:39Z</time>
      </trkpt>
    </trkseg>
  </trk>
</gpx>